createdAt,value
2022-09-01T00:03:27.546Z,80.05
2022-09-01T00:08:53.673Z,80.19
2022-09-01T00:14:29.666Z,80.84
2022-09-01T00:19:52.456Z,80.96
2022-09-01T00:25:14.319Z,81.18
2022-09-01T00:30:36.182Z,81.83
2022-09-01T00:35:58.382Z,82.75
2022-09-01T00:41:23.425Z,82.76
2022-09-01T00:46:50.358Z,83.99
2022-09-01T00:52:17.272Z,84.42
2022-09-01T00:57:40.024Z,85.10
2022-09-01T01:03:01.951Z,84.41
2022-09-01T01:08:28.502Z,85.09
2022-09-01T01:14:09.210Z,85.31
2022-09-01T01:19:43.977Z,85.55
2022-09-01T01:25:07.961Z,85.87
2022-09-01T01:30:29.841Z,86.30
2022-09-01T01:35:53.370Z,86.41
2022-09-01T01:41:18.096Z,86.97
2022-09-01T01:46:49.240Z,88.27
2022-09-01T01:52:12.811Z,87.89
2022-09-01T01:57:34.680Z,88.29
2022-09-01T02:02:56.720Z,88.71
2022-09-01T02:08:20.246Z,88.50
2022-09-01T02:13:42.223Z,88.81
2022-09-01T02:19:06.880Z,89.96
2022-09-01T02:24:28.750Z,90.13
2022-09-01T02:29:50.617Z,89.82
2022-09-01T02:35:12.545Z,90.81
2022-09-01T02:40:34.419Z,90.71
2022-09-01T02:45:59.671Z,90.96
2022-09-01T02:51:24.333Z,92.29
2022-09-01T02:56:46.917Z,92.79
2022-09-01T03:02:09.582Z,93.18
2022-09-01T03:07:32.171Z,92.42
2022-09-01T03:12:54.846Z,92.58
2022-09-01T03:18:17.477Z,92.97
2022-09-01T03:23:39.596Z,94.35
2022-09-01T03:29:01.515Z,94.09
2022-09-01T03:34:23.407Z,93.86
2022-09-01T03:39:45.330Z,93.79
2022-09-01T03:45:08.519Z,96.19
2022-09-01T03:50:30.335Z,95.24
2022-09-01T03:55:52.184Z,94.25
2022-09-01T04:01:14.689Z,93.63
2022-09-01T04:06:37.360Z,93.15
2022-09-01T04:11:59.182Z,90.70
2022-09-01T04:17:20.976Z,84.58
2022-09-01T04:22:42.988Z,65.21
2022-09-01T04:28:05.830Z,52.93
2022-09-01T04:33:29.057Z,44.04
2022-09-01T04:38:53.528Z,41.00
2022-09-01T04:44:17.633Z,36.30
2022-09-01T04:49:39.493Z,33.85
2022-09-01T04:55:01.417Z,30.17
2022-09-01T05:00:25.917Z,29.04
2022-09-01T05:05:47.782Z,31.35
2022-09-01T05:11:09.611Z,32.45
2022-09-01T05:16:31.572Z,39.90
2022-09-01T05:21:53.434Z,42.23
2022-09-01T05:27:15.302Z,42.97
2022-09-01T05:32:38.250Z,39.66
2022-09-01T05:38:00.089Z,33.58
2022-09-01T05:43:21.924Z,26.99
2022-09-01T05:48:44.813Z,24.71
2022-09-01T05:54:06.774Z,22.96
2022-09-01T05:59:29.367Z,24.07
2022-09-01T06:04:51.207Z,21.00
2022-09-01T06:10:13.368Z,19.52
2022-09-01T06:15:36.837Z,20.29
2022-09-01T06:20:58.760Z,20.47
2022-09-01T06:26:26.470Z,19.02
2022-09-01T06:31:48.488Z,18.81
2022-09-01T06:37:11.787Z,19.05
2022-09-01T06:42:33.607Z,18.63
2022-09-01T06:47:59.455Z,18.17
2022-09-01T06:53:38.957Z,17.06
2022-09-01T06:59:02.749Z,19.49
2022-09-01T07:04:25.213Z,19.19
2022-09-01T07:09:50.025Z,18.67
2022-09-01T07:21:38.897Z,21.78
2022-09-01T07:26:52.100Z,22.00
2022-09-01T07:43:37.522Z,23.46
2022-09-01T07:49:02.903Z,23.09
2022-09-01T07:54:43.085Z,23.00
2022-09-01T08:00:06.409Z,23.14
2022-09-01T08:05:28.319Z,22.31
2022-09-01T08:10:50.325Z,22.65
2022-09-01T08:16:19.573Z,25.64
2022-09-01T08:21:41.753Z,25.37
2022-09-01T08:27:03.632Z,23.82
2022-09-01T08:32:25.470Z,24.93
2022-09-01T08:37:47.313Z,23.13
2022-09-01T08:43:43.758Z,28.45
2022-09-01T08:49:26.136Z,32.56
2022-09-01T08:54:53.843Z,25.28
2022-09-01T09:00:19.373Z,27.88
2022-09-01T09:06:10.164Z,32.39
2022-09-01T09:11:59.594Z,29.16
2022-09-01T09:17:25.034Z,27.07
2022-09-01T09:22:48.615Z,24.99
2022-09-01T09:28:10.516Z,27.23
2022-09-01T09:33:51.808Z,28.34
2022-09-01T09:39:18.102Z,28.05
2022-09-01T09:44:45.203Z,28.35
2022-09-01T09:50:34.930Z,26.95
2022-09-01T09:55:56.694Z,27.30
2022-09-01T10:01:21.210Z,27.94
2022-09-01T10:06:46.816Z,29.40
2022-09-01T10:12:11.008Z,29.36
2022-09-01T10:17:38.398Z,28.61
2022-09-01T10:23:03.791Z,29.18
2022-09-01T10:28:27.952Z,31.54
2022-09-01T10:33:50.279Z,31.96
2022-09-01T10:39:14.859Z,32.43
2022-09-01T10:44:55.115Z,33.87
2022-09-01T10:50:35.957Z,33.74
2022-09-01T10:56:35.439Z,35.93
2022-09-01T11:02:34.654Z,35.38
2022-09-01T11:08:01.133Z,35.69
2022-09-01T11:13:49.937Z,36.65
2022-09-01T11:19:18.057Z,36.19
2022-09-01T11:24:39.804Z,35.62
2022-09-01T11:30:09.683Z,35.19
2022-09-01T11:35:32.087Z,36.03
2022-09-01T11:40:58.108Z,36.13
2022-09-01T11:46:29.077Z,36.24
2022-09-01T11:51:51.322Z,35.58
2022-09-01T11:57:40.809Z,35.17
2022-09-01T12:03:02.763Z,33.10
2022-09-01T12:08:26.017Z,32.30
2022-09-01T12:13:56.640Z,32.48
2022-09-01T12:19:28.785Z,34.16
2022-09-01T12:24:54.588Z,34.01
2022-09-01T12:30:16.728Z,32.61
2022-09-01T12:35:38.549Z,32.75
2022-09-01T12:41:00.419Z,34.21
2022-09-01T12:46:43.922Z,34.93
2022-09-01T12:52:21.530Z,34.95
2022-09-01T12:57:50.823Z,34.61
2022-09-01T13:03:16.226Z,34.77
2022-09-01T13:08:38.103Z,34.46
2022-09-01T13:13:59.941Z,33.99
2022-09-01T13:19:27.706Z,34.36
2022-09-01T13:24:50.881Z,33.03
2022-09-01T13:30:15.066Z,32.86
2022-09-01T13:35:36.897Z,34.25
2022-09-01T13:40:59.896Z,34.65
2022-09-01T13:46:21.727Z,35.36
2022-09-01T13:51:43.530Z,37.00
2022-09-01T13:57:05.569Z,37.37
2022-09-01T14:02:27.470Z,37.25
2022-09-01T14:07:50.046Z,36.95
2022-09-01T14:13:12.712Z,36.17
2022-09-01T14:18:35.478Z,35.36
2022-09-01T14:23:57.504Z,35.60
2022-09-01T14:29:19.488Z,34.50
2022-09-01T14:34:41.313Z,34.27
2022-09-01T14:40:03.651Z,34.50
2022-09-01T14:45:27.758Z,35.37
2022-09-01T14:50:49.652Z,35.03
2022-09-01T14:56:11.462Z,35.03
2022-09-01T15:01:34.932Z,34.80
2022-09-01T15:06:57.435Z,34.50
2022-09-01T15:12:19.304Z,34.80
2022-09-01T15:17:44.596Z,35.28
2022-09-01T15:23:08.641Z,35.70
2022-09-01T15:28:30.484Z,36.03
2022-09-01T15:33:55.266Z,36.66
2022-09-01T15:39:17.100Z,35.78
2022-09-01T15:44:38.921Z,36.49
2022-09-01T15:50:00.811Z,37.07
2022-09-01T15:55:27.468Z,37.70
2022-09-01T16:00:49.323Z,37.64
2022-09-01T16:06:11.157Z,38.44
2022-09-01T16:11:33.073Z,39.04
2022-09-01T16:17:15.643Z,39.23
2022-09-01T16:23:17.949Z,39.28
2022-09-01T16:28:43.483Z,39.10
2022-09-01T16:34:14.283Z,39.95
2022-09-01T16:39:55.418Z,40.33
2022-09-01T16:45:32.481Z,40.51
2022-09-01T16:51:02.181Z,41.09
2022-09-01T16:56:23.956Z,41.25
2022-09-01T17:02:16.903Z,42.16
2022-09-01T17:08:15.965Z,43.21
2022-09-01T17:13:42.880Z,42.78
2022-09-01T17:19:09.335Z,43.47
2022-09-01T17:24:42.328Z,43.94
2022-09-01T17:30:05.922Z,44.45
2022-09-01T17:36:05.894Z,45.72
2022-09-01T17:41:38.874Z,45.89
2022-09-01T17:47:22.796Z,47.16
2022-09-01T17:52:52.919Z,46.56
2022-09-01T17:58:47.400Z,47.57
2022-09-01T18:05:06.380Z,48.65
2022-09-01T18:10:39.924Z,49.79
2022-09-01T18:16:05.388Z,49.98
2022-09-01T18:21:34.870Z,50.31
2022-09-01T18:26:56.713Z,52.07
2022-09-01T18:32:40.405Z,53.40
2022-09-01T18:38:08.102Z,53.54
2022-09-01T18:43:48.734Z,53.80
2022-09-01T18:49:32.404Z,56.15
2022-09-01T18:54:58.189Z,55.25
2022-09-01T19:00:25.627Z,55.80
2022-09-01T19:05:55.438Z,56.39
2022-09-01T19:11:22.269Z,56.78
2022-09-01T19:17:24.921Z,58.31
2022-09-01T19:23:12.228Z,59.17
2022-09-01T19:28:36.751Z,58.92
2022-09-01T19:34:03.292Z,59.79
2022-09-01T19:39:35.517Z,60.34
2022-09-01T19:45:09.307Z,60.76
2022-09-01T19:50:44.429Z,61.07
2022-09-01T19:56:06.306Z,61.56
2022-09-01T20:01:40.513Z,62.84
2022-09-01T20:07:07.781Z,62.20
2022-09-01T20:12:45.477Z,63.29
2022-09-01T20:18:19.404Z,64.29
2022-09-01T20:24:20.336Z,64.86
2022-09-01T20:30:03.197Z,65.27
2022-09-01T20:36:05.222Z,66.15
2022-09-01T20:41:39.397Z,64.58
2022-09-01T20:47:03.684Z,65.20
2022-09-01T20:52:28.498Z,66.08
2022-09-01T20:58:09.079Z,66.45
2022-09-01T21:03:41.009Z,66.80
2022-09-01T21:09:15.291Z,68.53
2022-09-01T21:15:02.785Z,68.40
2022-09-01T21:20:43.797Z,69.47
2022-09-01T21:26:05.745Z,69.48
2022-09-01T21:31:27.559Z,69.91
2022-09-01T21:36:49.405Z,69.72
2022-09-01T21:42:15.519Z,69.90
2022-09-01T21:47:38.321Z,69.56
2022-09-01T21:53:00.502Z,70.42
2022-09-01T21:58:22.650Z,71.22
2022-09-01T22:03:44.471Z,70.95
2022-09-01T22:09:07.599Z,70.72
2022-09-01T22:14:43.294Z,71.84
2022-09-01T22:20:08.019Z,71.85
2022-09-01T22:25:32.149Z,72.17
2022-09-01T22:30:54.099Z,72.58
2022-09-01T22:36:31.560Z,71.83
2022-09-01T22:41:54.144Z,72.52
2022-09-01T22:47:16.027Z,71.86
2022-09-01T22:52:37.980Z,71.41
2022-09-01T22:57:59.782Z,71.62
2022-09-01T23:03:22.796Z,71.78
2022-09-01T23:08:44.809Z,72.12
2022-09-01T23:14:06.888Z,72.08
2022-09-01T23:19:28.863Z,72.67
2022-09-01T23:24:50.719Z,72.45
2022-09-01T23:30:14.697Z,73.36
2022-09-01T23:35:36.527Z,73.49
2022-09-01T23:40:58.369Z,73.77
2022-09-01T23:46:26.226Z,74.87
2022-09-01T23:51:49.141Z,74.64
2022-09-01T23:57:11.020Z,74.88
